Time;durP1;ratioP1;P1;durP2;ratioP2;P2;SDS_P1;SDS_P2;PMS_P1;PMS_P2;Temp;Humidity;BMP_temperature;BMP_pressure;BME280_temperature;BME280_humidity;BME280_pressure;Samples;Min_cycle;Max_cycle;Signal;HPM_P1;HPM_P2
2023/09/24 00:01:13;;;;;;;2.45;1.13;;;12.10;99.90;;;;;;5118918;27;20020;-50
2023/09/24 00:03:39;;;;;;;5.13;1.10;;;12.10;99.90;;;;;;5132155;27;20027;-45
2023/09/24 00:06:07;;;;;;;2.42;1.00;;;12.10;99.90;;;;;;5132757;27;20434;-49
2023/09/24 00:08:33;;;;;;;3.05;1.35;;;12.10;99.90;;;;;;5132918;27;20072;-47
2023/09/24 00:10:58;;;;;;;2.30;1.13;;;12.10;99.90;;;;;;5133024;27;20023;-47
2023/09/24 00:13:24;;;;;;;2.97;1.33;;;12.10;99.90;;;;;;5132396;27;20497;-43
2023/09/24 00:15:51;;;;;;;4.22;1.30;;;12.20;99.90;;;;;;5131917;27;20031;-45
2023/09/24 00:18:17;;;;;;;5.70;1.70;;;12.20;99.90;;;;;;5132647;27;20035;-48
2023/09/24 00:20:43;;;;;;;5.13;1.38;;;12.20;99.90;;;;;;5132504;27;20084;-51
2023/09/24 00:23:14;;;;;;;3.92;1.45;;;12.30;99.90;;;;;;5132655;27;20067;-44
2023/09/24 00:25:40;;;;;;;5.95;1.10;;;12.30;99.90;;;;;;5132458;27;20167;-44
2023/09/24 00:28:07;;;;;;;3.13;1.30;;;12.30;99.90;;;;;;5132437;27;20476;-48
2023/09/24 00:30:34;;;;;;;4.03;1.40;;;12.30;99.90;;;;;;5132361;27;20064;-42
2023/09/24 00:33:00;;;;;;;6.97;1.50;;;12.40;99.90;;;;;;5132178;27;20039;-49
2023/09/24 00:35:26;;;;;;;7.30;1.20;;;12.40;99.90;;;;;;5132080;27;20094;-43
2023/09/24 00:37:52;;;;;;;3.75;1.35;;;12.50;99.90;;;;;;5132299;27;20119;-55
2023/09/24 00:40:18;;;;;;;6.63;1.77;;;12.60;99.90;;;;;;5131990;27;20051;-51
2023/09/24 00:42:45;;;;;;;2.83;1.38;;;12.60;99.90;;;;;;5132119;27;20043;-48
2023/09/24 00:45:12;;;;;;;4.25;1.30;;;12.70;99.90;;;;;;5132255;27;20026;-54
2023/09/24 00:47:43;;;;;;;2.75;1.20;;;12.60;99.90;;;;;;5131919;27;20019;-51
2023/09/24 00:50:09;;;;;;;4.35;1.70;;;12.70;99.90;;;;;;5132256;27;20023;-49
2023/09/24 00:52:35;;;;;;;7.85;1.40;;;12.80;99.90;;;;;;5131983;27;20030;-45
2023/09/24 00:55:04;;;;;;;4.35;1.38;;;12.90;99.90;;;;;;5132012;27;20080;-49
2023/09/24 00:57:31;;;;;;;5.22;1.33;;;13.00;99.90;;;;;;5131453;27;20057;-51
2023/09/24 00:59:58;;;;;;;4.47;1.50;;;13.10;99.90;;;;;;5128717;27;20027;-51
2023/09/24 01:02:24;;;;;;;2.67;1.23;;;13.20;99.90;;;;;;5120362;27;20437;-42
2023/09/24 01:04:53;;;;;;;2.75;1.30;;;13.30;99.90;;;;;;5131732;27;20027;-51
2023/09/24 01:07:21;;;;;;;4.72;1.42;;;13.30;99.90;;;;;;5131971;27;20030;-45
2023/09/24 01:09:48;;;;;;;4.05;1.55;;;13.40;99.90;;;;;;5131746;27;20019;-49
2023/09/24 01:12:21;;;;;;;5.05;1.52;;;13.50;99.90;;;;;;5131697;27;20021;-43
2023/09/24 01:14:47;;;;;;;4.38;1.48;;;13.60;99.90;;;;;;5124614;27;20034;-49
2023/09/24 01:17:14;;;;;;;5.00;1.85;;;13.70;99.90;;;;;;5130536;27;20023;-46
2023/09/24 01:19:40;;;;;;;4.18;1.42;;;13.80;99.90;;;;;;5131569;27;20127;-48
2023/09/24 01:22:07;;;;;;;6.80;1.70;;;13.80;99.90;;;;;;5131216;27;20399;-54
2023/09/24 01:24:32;;;;;;;3.47;1.27;;;13.80;99.90;;;;;;5131263;27;20020;-47
2023/09/24 01:26:58;;;;;;;5.38;1.40;;;13.80;99.90;;;;;;5131012;27;20034;-45
2023/09/24 01:29:24;;;;;;;6.82;1.50;;;13.90;99.90;;;;;;5131393;27;20030;-56
2023/09/24 01:31:51;;;;;;;4.78;1.80;;;13.80;99.90;;;;;;5131571;27;20019;-42
2023/09/24 01:34:18;;;;;;;7.65;1.60;;;13.80;99.90;;;;;;5131178;28;20521;-54
2023/09/24 01:36:44;;;;;;;9.45;2.10;;;13.90;99.90;;;;;;5131407;28;20019;-53
2023/09/24 01:39:09;;;;;;;6.10;1.60;;;13.80;99.90;;;;;;5112706;28;20400;-48
2023/09/24 01:41:35;;;;;;;8.18;1.95;;;13.90;99.90;;;;;;5128559;27;20024;-49
2023/09/24 01:44:02;;;;;;;4.93;1.40;;;13.90;99.90;;;;;;5130819;27;20091;-48
2023/09/24 01:46:27;;;;;;;4.50;1.35;;;13.90;99.90;;;;;;5130460;27;20062;-48
2023/09/24 01:48:54;;;;;;;8.73;2.05;;;13.90;99.90;;;;;;5130904;27;20059;-51
2023/09/24 01:51:20;;;;;;;5.82;1.77;;;14.00;99.90;;;;;;5116676;28;20509;-45
2023/09/24 01:53:48;;;;;;;5.05;1.63;;;14.00;99.90;;;;;;5131385;27;20031;-57
2023/09/24 01:56:14;;;;;;;7.57;1.58;;;14.10;99.90;;;;;;5131353;27;20087;-52
2023/09/24 01:58:39;;;;;;;5.80;1.70;;;14.10;99.90;;;;;;5125294;27;20038;-42
2023/09/24 02:01:07;;;;;;;5.30;1.48;;;14.20;99.90;;;;;;5121814;27;20027;-42
2023/09/24 02:03:33;;;;;;;4.68;1.83;;;14.20;99.90;;;;;;5130788;27;20193;-43
2023/09/24 02:05:58;;;;;;;4.40;1.63;;;14.20;99.90;;;;;;5131142;28;20102;-46
2023/09/24 02:08:24;;;;;;;6.90;1.63;;;14.20;99.90;;;;;;5131031;28;20027;-47
2023/09/24 02:10:49;;;;;;;5.70;1.77;;;14.20;99.90;;;;;;5131066;28;20479;-51
2023/09/24 02:13:15;;;;;;;3.75;1.55;;;14.20;99.90;;;;;;5130846;27;20031;-44
2023/09/24 02:15:43;;;;;;;3.92;2.00;;;14.30;99.90;;;;;;5125294;28;20019;-56
2023/09/24 02:18:09;;;;;;;6.72;1.90;;;14.40;99.90;;;;;;5121400;27;20094;-46
2023/09/24 02:20:38;;;;;;;7.32;1.35;;;14.40;99.90;;;;;;5130829;28;20016;-46
2023/09/24 02:23:04;;;;;;;9.40;1.80;;;14.40;99.90;;;;;;5130928;27;20035;-47
2023/09/24 02:25:35;;;;;;;8.20;2.25;;;14.50;99.90;;;;;;5130678;28;20122;-54
2023/09/24 02:28:01;;;;;;;10.48;2.13;;;14.50;99.90;;;;;;5130840;28;20015;-50
2023/09/24 02:30:28;;;;;;;6.80;1.88;;;14.50;99.90;;;;;;5130893;28;20045;-47
2023/09/24 02:32:55;;;;;;;7.53;1.80;;;14.60;99.90;;;;;;5130915;27;20023;-49
2023/09/24 02:35:20;;;;;;;9.52;2.15;;;14.70;99.90;;;;;;5131026;28;20545;-52
2023/09/24 02:37:50;;;;;;;3.85;1.50;;;14.70;99.90;;;;;;5131258;27;20027;-45
2023/09/24 02:42:46;;;;;;;7.07;1.40;;;14.80;99.90;;;;;;5134644;27;20029;-43
2023/09/24 02:45:15;;;;;;;2.63;1.08;;;14.80;99.90;;;;;;5134522;27;20110;-43
2023/09/24 02:47:53;;;;;;;6.95;2.25;;;14.80;99.90;;;;;;5134302;27;20476;-43
2023/09/24 02:50:27;;;;;;;5.72;1.33;;;14.80;99.90;;;;;;5125030;27;20483;-51
2023/09/24 02:53:02;;;;;;;5.50;1.98;;;14.70;99.90;;;;;;5130608;27;20080;-46
2023/09/24 02:55:29;;;;;;;7.65;2.17;;;14.70;99.90;;;;;;5134118;27;20106;-52
2023/09/24 02:57:55;;;;;;;2.80;1.15;;;14.70;99.90;;;;;;5134053;27;20046;-46
2023/09/24 03:02:53;;;;;;;5.60;2.08;;;14.60;99.90;;;;;;5133985;27;20038;-54
2023/09/24 03:05:24;;;;;;;9.90;1.85;;;14.60;99.90;;;;;;5134153;27;20524;-54
2023/09/24 03:07:50;;;;;;;6.72;1.75;;;14.60;99.90;;;;;;5134035;27;20118;-51
2023/09/24 03:10:16;;;;;;;9.05;1.95;;;14.60;99.90;;;;;;5134218;27;20049;-51
2023/09/24 03:12:43;;;;;;;10.07;1.52;;;14.70;99.90;;;;;;5115653;27;20034;-46
2023/09/24 03:15:12;;;;;;;4.50;1.85;;;14.70;99.90;;;;;;5133819;27;20510;-44
2023/09/24 03:17:39;;;;;;;6.38;1.70;;;14.80;99.90;;;;;;5133402;27;20060;-53
2023/09/24 03:20:15;;;;;;;3.28;1.42;;;14.80;99.90;;;;;;5133522;27;20586;-45
2023/09/24 03:22:48;;;;;;;7.07;1.83;;;14.90;99.90;;;;;;5133970;27;20026;-51
2023/09/24 03:25:32;;;;;;;7.82;1.52;;;14.90;99.90;;;;;;5133774;27;20034;-41
2023/09/24 03:28:00;;;;;;;6.00;1.40;;;14.90;99.90;;;;;;5133637;27;20536;-42
2023/09/24 03:30:26;;;;;;;5.75;2.00;;;14.90;99.90;;;;;;5133474;27;20015;-41
2023/09/24 03:32:52;;;;;;;8.80;1.55;;;14.90;99.90;;;;;;5133542;27;20035;-42
2023/09/24 03:35:24;;;;;;;8.25;1.77;;;14.90;99.90;;;;;;5133635;27;20022;-49
2023/09/24 03:37:50;;;;;;;12.48;2.13;;;15.00;99.90;;;;;;5133298;27;20123;-45
2023/09/24 03:40:18;;;;;;;6.15;1.63;;;15.00;99.90;;;;;;5133153;27;20039;-47
2023/09/24 03:42:45;;;;;;;8.07;1.63;;;14.90;99.90;;;;;;5115062;27;20051;-51
2023/09/24 03:45:12;;;;;;;6.15;1.42;;;15.00;99.90;;;;;;5133453;27;20098;-46
2023/09/24 03:47:39;;;;;;;5.05;1.60;;;14.90;99.90;;;;;;5133420;27;20011;-55
2023/09/24 03:50:08;;;;;;;7.68;2.00;;;14.90;99.90;;;;;;5125513;27;20024;-53
2023/09/24 03:52:33;;;;;;;3.90;1.40;;;14.90;99.90;;;;;;5126822;27;20026;-50
2023/09/24 03:54:59;;;;;;;4.38;2.80;;;14.90;99.90;;;;;;5132912;27;20102;-49
2023/09/24 03:57:27;;;;;;;7.22;1.48;;;14.90;99.90;;;;;;5133088;27;20479;-54
2023/09/24 03:59:56;;;;;;;11.00;1.73;;;14.80;99.90;;;;;;5133020;27;20027;-47
2023/09/24 04:02:23;;;;;;;7.22;1.35;;;14.80;99.90;;;;;;5133130;27;20015;-48
2023/09/24 04:04:49;;;;;;;11.55;1.80;;;14.80;99.90;;;;;;5132822;27;20107;-53
2023/09/24 04:07:15;;;;;;;6.10;1.30;;;14.80;99.90;;;;;;5132961;27;20027;-51
2023/09/24 04:09:43;;;;;;;4.72;1.50;;;14.90;99.90;;;;;;5132792;27;20030;-59
2023/09/24 04:12:09;;;;;;;9.68;2.00;;;14.80;99.90;;;;;;5132914;27;20011;-54
2023/09/24 04:14:35;;;;;;;6.68;1.77;;;14.80;99.90;;;;;;5132956;27;20121;-57
2023/09/24 04:17:02;;;;;;;8.70;2.10;;;14.80;99.90;;;;;;5132606;27;20551;-54
2023/09/24 04:19:29;;;;;;;4.15;1.40;;;14.80;99.90;;;;;;5132669;27;20039;-49
2023/09/24 04:21:55;;;;;;;6.25;1.83;;;14.80;99.90;;;;;;5132699;27;20088;-53
2023/09/24 04:24:21;;;;;;;4.32;1.58;;;14.80;99.90;;;;;;5132447;27;20023;-51
2023/09/24 04:26:47;;;;;;;4.60;1.20;;;14.80;99.90;;;;;;5132366;27;20102;-56
2023/09/24 04:29:15;;;;;;;4.72;1.52;;;14.80;99.90;;;;;;5132472;27;20102;-45
2023/09/24 04:31:42;;;;;;;8.25;1.95;;;14.80;99.90;;;;;;5132654;27;20034;-58
2023/09/24 04:34:09;;;;;;;6.47;1.80;;;14.80;99.90;;;;;;5132342;27;20023;-54
2023/09/24 04:36:35;;;;;;;11.68;2.00;;;14.80;99.90;;;;;;5132530;27;20034;-56
2023/09/24 04:39:03;;;;;;;4.95;1.73;;;14.80;99.90;;;;;;5131894;27;20114;-46
2023/09/24 04:41:29;;;;;;;5.35;1.60;;;14.90;99.90;;;;;;5131739;27;20390;-50
2023/09/24 04:43:54;;;;;;;4.38;1.67;;;14.90;99.90;;;;;;5131800;27;20403;-53
2023/09/24 04:46:20;;;;;;;6.35;1.50;;;14.90;99.90;;;;;;5131909;27;20109;-45
2023/09/24 04:48:45;;;;;;;9.30;1.80;;;14.90;99.90;;;;;;5131223;27;20102;-52
2023/09/24 04:51:11;;;;;;;14.73;2.22;;;15.00;99.90;;;;;;5099339;27;20012;-53
2023/09/24 04:53:38;;;;;;;7.35;1.50;;;15.00;99.90;;;;;;5131993;27;20079;-54
2023/09/24 04:56:07;;;;;;;6.13;1.67;;;14.90;99.90;;;;;;5132046;27;20027;-52
2023/09/24 04:58:32;;;;;;;10.05;2.13;;;14.90;99.90;;;;;;5132037;27;20172;-42
2023/09/24 05:01:07;;;;;;;7.13;1.52;;;14.90;99.90;;;;;;5131657;27;20098;-50
2023/09/24 05:03:35;;;;;;;8.65;1.58;;;14.90;99.90;;;;;;5117717;27;20019;-41
2023/09/24 05:06:03;;;;;;;5.13;1.52;;;14.80;99.90;;;;;;5131906;27;20024;-49
2023/09/24 05:08:29;;;;;;;7.22;1.73;;;14.80;99.90;;;;;;5131785;27;20038;-52
2023/09/24 05:10:55;;;;;;;5.85;1.45;;;14.90;99.90;;;;;;5132071;27;20015;-55
2023/09/24 05:13:20;;;;;;;6.50;1.15;;;14.90;99.90;;;;;;5131824;27;20487;-46
2023/09/24 05:15:54;;;;;;;9.13;1.50;;;14.90;99.90;;;;;;5131921;27;20407;-57
2023/09/24 05:18:28;;;;;;;4.28;1.65;;;15.00;99.90;;;;;;5131245;27;20495;-45
2023/09/24 05:20:55;;;;;;;7.68;1.92;;;15.00;99.90;;;;;;5131787;27;20030;-44
2023/09/24 05:23:23;;;;;;;5.78;1.40;;;15.10;99.90;;;;;;5131741;27;20023;-51
2023/09/24 05:25:52;;;;;;;5.25;1.60;;;15.20;99.90;;;;;;5131118;27;20531;-54
2023/09/24 05:28:18;;;;;;;6.97;1.50;;;15.30;99.90;;;;;;5131577;27;20039;-52
2023/09/24 05:30:54;;;;;;;7.25;1.50;;;15.30;99.90;;;;;;5131423;27;20396;-53
2023/09/24 05:33:20;;;;;;;9.13;1.75;;;15.40;99.90;;;;;;5131459;27;20049;-45
2023/09/24 05:35:51;;;;;;;7.30;1.83;;;15.40;99.90;;;;;;5113409;28;20102;-48
2023/09/24 05:38:16;;;;;;;5.03;1.90;;;15.50;99.90;;;;;;5131302;27;20031;-55
2023/09/24 05:40:42;;;;;;;10.60;1.90;;;15.50;99.90;;;;;;5131204;27;20050;-49
2023/09/24 05:43:09;;;;;;;5.40;1.13;;;15.50;99.90;;;;;;5131523;27;20027;-41
2023/09/24 05:45:34;;;;;;;8.15;2.20;;;15.50;99.90;;;;;;5131030;27;20110;-40
2023/09/24 05:48:00;;;;;;;4.22;1.38;;;15.50;99.90;;;;;;5131363;27;20122;-40
2023/09/24 05:50:26;;;;;;;11.07;2.58;;;15.50;99.90;;;;;;5121010;28;20027;-40
2023/09/24 05:52:52;;;;;;;10.38;1.92;;;15.60;99.90;;;;;;5127167;27;20031;-41
2023/09/24 05:55:18;;;;;;;5.80;1.55;;;15.50;99.90;;;;;;5131146;28;20019;-40
2023/09/24 05:57:43;;;;;;;9.55;1.73;;;15.50;99.90;;;;;;5130886;27;20050;-40
2023/09/24 06:00:09;;;;;;;9.90;2.03;;;15.50;99.90;;;;;;5131071;27;20493;-40
2023/09/24 06:02:36;;;;;;;5.65;1.30;;;15.60;99.90;;;;;;5131545;27;20023;-40
2023/09/24 06:05:02;;;;;;;7.63;1.90;;;15.60;99.90;;;;;;5131021;27;20042;-41
2023/09/24 06:07:28;;;;;;;4.55;1.35;;;15.70;99.90;;;;;;5131386;28;20020;-40
2023/09/24 06:09:56;;;;;;;3.05;1.42;;;15.70;99.90;;;;;;5130690;27;20025;-46
2023/09/24 06:12:24;;;;;;;3.83;1.48;;;15.70;99.90;;;;;;5131148;27;20088;-54
2023/09/24 06:14:50;;;;;;;14.63;2.10;;;15.70;99.90;;;;;;5134766;27;20024;-51
2023/09/24 06:17:15;;;;;;;5.32;1.30;;;15.70;99.90;;;;;;5135348;27;20031;-42
2023/09/24 06:19:41;;;;;;;9.65;1.20;;;15.70;99.90;;;;;;5134981;27;20403;-42
2023/09/24 06:22:06;;;;;;;8.93;1.60;;;15.80;99.90;;;;;;5135011;27;20102;-47
2023/09/24 06:24:32;;;;;;;8.32;1.67;;;15.90;99.90;;;;;;5135111;27;20383;-43
2023/09/24 06:26:57;;;;;;;7.15;1.80;;;15.90;99.90;;;;;;5134691;27;20499;-48
2023/09/24 06:29:23;;;;;;;7.15;1.70;;;15.90;99.90;;;;;;5134786;27;20114;-51
2023/09/24 06:31:50;;;;;;;12.10;1.98;;;15.90;99.90;;;;;;5134624;27;20023;-44
2023/09/24 06:34:16;;;;;;;11.98;1.77;;;16.00;99.90;;;;;;5134900;27;20068;-50
2023/09/24 06:36:41;;;;;;;4.72;1.48;;;16.00;99.90;;;;;;5134449;27;20027;-51
2023/09/24 06:39:09;;;;;;;11.85;1.65;;;16.00;99.90;;;;;;5133733;27;20406;-51
2023/09/24 06:41:35;;;;;;;6.20;1.38;;;16.10;99.90;;;;;;5134151;27;20035;-46
2023/09/24 06:44:01;;;;;;;6.57;1.65;;;16.10;99.90;;;;;;5133592;27;20023;-53
2023/09/24 06:46:26;;;;;;;7.93;1.48;;;16.20;99.90;;;;;;5121611;27;20065;-46
2023/09/24 06:48:52;;;;;;;6.47;1.95;;;16.20;99.90;;;;;;5113137;28;20088;-55
2023/09/24 06:51:17;;;;;;;6.82;1.75;;;16.30;99.90;;;;;;5113767;28;20047;-46
2023/09/24 06:53:44;;;;;;;9.48;1.63;;;16.30;99.90;;;;;;5113623;28;20039;-56
2023/09/24 06:56:10;;;;;;;6.28;1.58;;;16.40;99.90;;;;;;5113755;28;20024;-47
2023/09/24 06:58:36;;;;;;;7.63;1.85;;;16.40;99.90;;;;;;5113247;28;20080;-52
2023/09/24 07:01:03;;;;;;;7.75;1.73;;;16.40;99.90;;;;;;5113551;28;20030;-46
2023/09/24 07:03:29;;;;;;;5.35;1.63;;;16.50;99.90;;;;;;5113057;28;20030;-47
2023/09/24 07:05:56;;;;;;;6.25;1.45;;;16.50;99.90;;;;;;5113366;28;20559;-50
2023/09/24 07:08:21;;;;;;;4.75;1.55;;;16.60;99.90;;;;;;5112935;28;20024;-56
2023/09/24 07:11:10;;;;;;;9.02;2.25;;;16.70;99.90;;;;;;5113072;27;20103;-51
2023/09/24 07:13:35;;;;;;;4.50;1.65;;;16.80;99.90;;;;;;5112766;27;20051;-46
2023/09/24 07:16:01;;;;;;;5.72;1.48;;;16.80;99.90;;;;;;5098083;27;20034;-47
2023/09/24 07:18:27;;;;;;;7.63;1.77;;;16.90;99.90;;;;;;5115660;27;20043;-52
2023/09/24 07:20:53;;;;;;;4.88;1.70;;;16.90;99.90;;;;;;5113462;27;20020;-44
2023/09/24 07:23:18;;;;;;;9.65;1.73;;;16.90;99.90;;;;;;5112923;28;20107;-53
2023/09/24 07:25:44;;;;;;;7.53;1.30;;;17.00;99.90;;;;;;5112764;28;20027;-45
2023/09/24 07:28:09;;;;;;;4.68;1.42;;;17.00;99.90;;;;;;5129080;27;20034;-45
2023/09/24 07:30:35;;;;;;;8.63;1.75;;;17.20;99.90;;;;;;5112904;28;20016;-47
2023/09/24 07:33:00;;;;;;;5.95;1.35;;;17.30;99.90;;;;;;5113089;28;20031;-48
2023/09/24 07:35:26;;;;;;;7.30;1.25;;;17.50;99.90;;;;;;5112769;28;20649;-46
2023/09/24 07:37:52;;;;;;;7.50;1.60;;;17.40;99.90;;;;;;5112786;27;20036;-50
2023/09/24 07:40:17;;;;;;;6.95;1.85;;;17.30;99.90;;;;;;5116220;27;20058;-52
2023/09/24 07:42:46;;;;;;;4.47;1.35;;;17.20;99.90;;;;;;5117846;27;20388;-59
2023/09/24 07:45:13;;;;;;;6.30;1.50;;;17.20;99.90;;;;;;5120555;27;20439;-55
2023/09/24 07:47:39;;;;;;;6.82;1.67;;;17.20;99.90;;;;;;5112418;27;20023;-45
2023/09/24 07:50:05;;;;;;;7.32;1.45;;;17.20;99.90;;;;;;5119582;27;20082;-49
2023/09/24 07:52:31;;;;;;;7.75;1.85;;;17.20;99.90;;;;;;5119344;27;20024;-48
2023/09/24 07:54:57;;;;;;;9.05;1.50;;;17.30;99.90;;;;;;5112336;27;20107;-53
2023/09/24 07:57:22;;;;;;;6.38;1.27;;;17.50;99.90;;;;;;5120171;27;20110;-42
2023/09/24 07:59:48;;;;;;;11.77;1.77;;;17.80;99.90;;;;;;5129181;27;20066;-57
2023/09/24 08:02:13;;;;;;;4.72;1.55;;;18.00;99.90;;;;;;5123303;27;20084;-51
2023/09/24 08:04:39;;;;;;;5.97;1.73;;;18.10;99.90;;;;;;5119791;27;20126;-44
2023/09/24 08:07:05;;;;;;;10.73;2.35;;;18.00;99.90;;;;;;5111932;28;20072;-46
2023/09/24 08:09:30;;;;;;;8.35;1.88;;;17.90;99.90;;;;;;5113616;27;20015;-47
2023/09/24 08:11:56;;;;;;;8.07;1.80;;;17.60;99.90;;;;;;5124092;27;20110;-53
2023/09/24 08:14:22;;;;;;;6.75;1.58;;;17.50;99.90;;;;;;5117982;27;20400;-44
2023/09/24 08:16:48;;;;;;;4.88;1.65;;;17.40;99.90;;;;;;5105904;27;20027;-43
2023/09/24 08:19:13;;;;;;;8.70;1.60;;;17.30;99.90;;;;;;5119204;27;20046;-44
2023/09/24 08:21:39;;;;;;;4.65;1.77;;;17.20;99.90;;;;;;5122641;27;20019;-43
2023/09/24 08:24:05;;;;;;;4.20;1.02;;;17.30;99.90;;;;;;5110807;27;20085;-52
2023/09/24 08:26:33;;;;;;;5.03;1.50;;;17.30;99.90;;;;;;5113528;27;20035;-46
2023/09/24 08:28:59;;;;;;;12.10;2.10;;;17.40;99.90;;;;;;5110764;28;20027;-55
2023/09/24 08:31:25;;;;;;;6.45;1.52;;;17.60;99.90;;;;;;5119389;27;20015;-43
2023/09/24 08:33:51;;;;;;;4.88;1.48;;;18.00;99.90;;;;;;5111239;27;20028;-53
2023/09/24 08:36:17;;;;;;;6.30;1.67;;;18.60;99.90;;;;;;5111388;27;20114;-52
2023/09/24 08:38:43;;;;;;;5.78;1.35;;;18.70;99.90;;;;;;5119808;27;20054;-44
2023/09/24 08:41:12;;;;;;;7.07;1.60;;;18.60;99.90;;;;;;5114006;27;20129;-46
2023/09/24 08:43:41;;;;;;;5.88;1.33;;;18.50;99.90;;;;;;5126850;27;20022;-42
2023/09/24 08:46:08;;;;;;;4.07;1.30;;;18.30;99.90;;;;;;5120720;27;20028;-48
2023/09/24 08:48:34;;;;;;;6.35;1.60;;;18.20;99.90;;;;;;5119726;27;20043;-48
2023/09/24 08:51:02;;;;;;;7.60;1.48;;;18.00;99.90;;;;;;5112655;27;20054;-46
2023/09/24 08:53:30;;;;;;;8.82;1.65;;;17.90;99.90;;;;;;5110496;27;20038;-55
2023/09/24 08:55:55;;;;;;;5.60;1.45;;;17.80;99.90;;;;;;5122354;27;20099;-52
2023/09/24 08:58:22;;;;;;;7.25;1.42;;;17.80;99.90;;;;;;5110942;27;20131;-51
2023/09/24 09:00:48;;;;;;;5.85;1.50;;;17.80;99.90;;;;;;5115848;27;20023;-50
2023/09/24 09:03:14;;;;;;;6.38;1.95;;;17.80;99.90;;;;;;5114241;27;20092;-49
2023/09/24 09:05:43;;;;;;;5.68;1.25;;;17.80;99.90;;;;;;5118156;27;20026;-46
2023/09/24 09:08:09;;;;;;;10.00;2.15;;;17.70;99.90;;;;;;5116114;27;20074;-49
2023/09/24 09:10:37;;;;;;;8.52;2.05;;;17.60;99.90;;;;;;5113585;27;20016;-47
2023/09/24 09:13:18;;;;;;;12.00;2.08;;;17.60;99.90;;;;;;5120161;27;20084;-51
2023/09/24 09:15:44;;;;;;;5.38;1.60;;;17.60;99.90;;;;;;5115372;27;20420;-57
2023/09/24 09:18:27;;;;;;;5.35;1.88;;;17.70;99.90;;;;;;5113641;27;20502;-42
2023/09/24 09:20:59;;;;;;;8.38;2.03;;;17.90;99.90;;;;;;5114312;27;20028;-45
2023/09/24 09:23:29;;;;;;;6.35;1.88;;;18.20;99.90;;;;;;5118088;27;20076;-50
2023/09/24 09:25:55;;;;;;;8.38;1.55;;;18.30;99.90;;;;;;5118304;27;20026;-45
2023/09/24 09:28:29;;;;;;;5.60;1.33;;;18.30;99.90;;;;;;5113072;27;20067;-46
2023/09/24 09:30:58;;;;;;;7.85;1.33;;;18.30;99.90;;;;;;5130352;27;20504;-43
2023/09/24 09:33:26;;;;;;;7.38;1.95;;;18.20;99.90;;;;;;5126459;27;20027;-51
2023/09/24 09:35:51;;;;;;;8.23;2.15;;;18.20;99.90;;;;;;5124795;28;20050;-46
2023/09/24 09:38:17;;;;;;;10.40;1.45;;;18.30;99.90;;;;;;5121526;28;20067;-51
2023/09/24 09:40:43;;;;;;;8.57;1.92;;;18.40;99.90;;;;;;5123947;27;20036;-55
2023/09/24 09:43:12;;;;;;;5.40;1.15;;;18.40;99.90;;;;;;5127077;27;20069;-53
2023/09/24 09:45:38;;;;;;;7.78;1.92;;;18.30;99.90;;;;;;5131227;27;20019;-48
2023/09/24 09:48:07;;;;;;;7.70;2.00;;;18.30;99.90;;;;;;5116111;27;20027;-45
2023/09/24 09:50:41;;;;;;;4.33;1.60;;;18.30;99.90;;;;;;5127637;27;20027;-54
2023/09/24 09:53:09;;;;;;;9.85;1.80;;;18.30;99.90;;;;;;5125753;27;20214;-47
2023/09/24 09:55:39;;;;;;;4.80;1.33;;;18.30;99.90;;;;;;5125013;27;20047;-54
2023/09/24 09:58:06;;;;;;;3.90;1.33;;;18.40;99.90;;;;;;5118302;27;20020;-47
2023/09/24 10:00:32;;;;;;;8.15;1.83;;;18.30;99.90;;;;;;5115165;27;20571;-46
2023/09/24 10:02:57;;;;;;;6.85;1.63;;;18.30;99.90;;;;;;5117107;27;20106;-55
2023/09/24 10:05:23;;;;;;;10.38;2.17;;;18.30;99.90;;;;;;5117222;27;20437;-46
2023/09/24 10:07:49;;;;;;;6.00;1.52;;;18.40;99.90;;;;;;5132039;27;20453;-55
2023/09/24 10:10:30;;;;;;;7.38;1.60;;;18.50;99.90;;;;;;5131911;27;20015;-44
2023/09/24 10:12:56;;;;;;;9.63;2.22;;;18.60;99.90;;;;;;5118756;27;20492;-43
2023/09/24 10:15:26;;;;;;;11.43;1.60;;;18.70;99.90;;;;;;5128636;27;20058;-55
2023/09/24 10:18:07;;;;;;;10.07;2.55;;;18.70;99.90;;;;;;5128317;27;20023;-47
2023/09/24 10:20:53;;;;;;;6.78;1.70;;;18.60;99.90;;;;;;5119603;27;20035;-43
2023/09/24 10:23:30;;;;;;;8.25;2.58;;;18.50;99.90;;;;;;5120848;27;20058;-43
2023/09/24 10:26:01;;;;;;;6.50;1.50;;;18.40;99.90;;;;;;5130654;27;20072;-52
2023/09/24 10:28:49;;;;;;;7.38;1.10;;;18.50;99.90;;;;;;5113364;28;20071;-47
2023/09/24 10:31:22;;;;;;;4.80;1.50;;;18.60;99.90;;;;;;5112641;28;20035;-46
2023/09/24 10:34:05;;;;;;;3.92;1.30;;;18.60;99.90;;;;;;5122252;27;20031;-42
2023/09/24 10:36:33;;;;;;;7.13;1.88;;;18.60;99.90;;;;;;5125845;27;20027;-48
2023/09/24 10:39:07;;;;;;;6.18;1.90;;;18.40;99.90;;;;;;5112299;28;20032;-54
2023/09/24 10:41:35;;;;;;;7.75;2.00;;;18.20;99.90;;;;;;5127946;27;20032;-45
2023/09/24 10:44:26;;;;;;;4.15;1.17;;;18.20;99.90;;;;;;5131319;27;20024;-53
2023/09/24 10:46:52;;;;;;;15.25;1.85;;;18.20;99.90;;;;;;5119118;27;20483;-53
2023/09/24 10:49:19;;;;;;;6.00;1.55;;;18.20;99.90;;;;;;5120799;27;20497;-42
2023/09/24 10:51:45;;;;;;;8.98;1.90;;;18.20;99.90;;;;;;5125645;27;20028;-41
2023/09/24 10:54:16;;;;;;;7.38;1.98;;;18.30;99.90;;;;;;5121790;27;20102;-42
2023/09/24 10:56:48;;;;;;;6.60;1.30;;;18.40;99.90;;;;;;5118875;27;20091;-41
2023/09/24 10:59:15;;;;;;;7.93;2.00;;;18.50;99.90;;;;;;5123980;27;20126;-52
2023/09/24 11:01:41;;;;;;;3.85;1.60;;;18.50;99.90;;;;;;5116989;27;20015;-54
2023/09/24 11:04:09;;;;;;;5.82;1.92;;;18.60;99.90;;;;;;5124336;27;20507;-55
2023/09/24 11:06:35;;;;;;;5.72;1.33;;;18.60;99.90;;;;;;5115867;27;20059;-51
2023/09/24 11:09:15;;;;;;;6.32;1.50;;;18.60;99.90;;;;;;5113125;28;20027;-58
2023/09/24 11:11:41;;;;;;;5.20;1.60;;;18.60;99.90;;;;;;5113031;28;20034;-46
2023/09/24 11:14:22;;;;;;;6.97;2.03;;;18.60;99.90;;;;;;5112869;28;20028;-56
2023/09/24 11:16:49;;;;;;;7.55;1.77;;;18.80;99.90;;;;;;5112929;28;20023;-43
2023/09/24 11:19:44;;;;;;;9.77;2.22;;;18.80;99.90;;;;;;5112747;28;20110;-44
2023/09/24 11:22:20;;;;;;;7.88;1.52;;;18.70;99.90;;;;;;5119083;27;20023;-49
2023/09/24 11:25:08;;;;;;;5.68;1.65;;;18.70;99.90;;;;;;5119965;27;20070;-49
2023/09/24 11:27:47;;;;;;;4.10;1.40;;;18.50;99.90;;;;;;5112632;28;20023;-47
2023/09/24 11:30:17;;;;;;;7.05;1.98;;;18.50;99.90;;;;;;5112577;28;20028;-52
2023/09/24 11:32:48;;;;;;;7.53;1.70;;;18.50;99.90;;;;;;5118801;27;20112;-46
2023/09/24 11:35:16;;;;;;;6.43;1.60;;;18.70;99.90;;;;;;5111623;28;20011;-49
2023/09/24 11:38:02;;;;;;;6.25;1.88;;;18.80;99.90;;;;;;5112138;28;20050;-55
2023/09/24 11:40:32;;;;;;;6.43;1.80;;;19.00;99.90;;;;;;5112222;28;20039;-55
2023/09/24 11:43:03;;;;;;;4.35;1.65;;;18.90;99.90;;;;;;5112306;27;20408;-49
2023/09/24 11:45:50;;;;;;;5.93;1.50;;;18.90;99.90;;;;;;5118628;27;20472;-47
2023/09/24 11:48:16;;;;;;;14.05;2.22;;;19.10;99.90;;;;;;5122250;27;20036;-46
2023/09/24 11:50:54;;;;;;;10.50;1.90;;;19.40;99.90;;;;;;5112233;27;20034;-45
2023/09/24 11:53:22;;;;;;;6.85;1.15;;;19.90;99.90;;;;;;5108915;27;20022;-49
2023/09/24 11:55:48;;;;;;;7.10;1.48;;;20.20;99.90;;;;;;5111044;28;20016;-50
2023/09/24 11:58:17;;;;;;;8.20;1.55;;;20.60;99.90;;;;;;5110348;28;20028;-56
2023/09/24 12:00:43;;;;;;;4.82;1.33;;;20.50;99.90;;;;;;5111623;28;20047;-43
2023/09/24 12:03:09;;;;;;;3.80;1.15;;;20.50;99.90;;;;;;5111042;28;20086;-47
2023/09/24 12:05:35;;;;;;;8.88;1.65;;;20.50;99.90;;;;;;5111098;28;20036;-50
2023/09/24 12:08:03;;;;;;;6.43;1.45;;;20.70;99.90;;;;;;5111332;28;20026;-52
2023/09/24 12:10:29;;;;;;;6.18;1.48;;;20.80;99.90;;;;;;5109918;28;20091;-47
2023/09/24 12:13:01;;;;;;;5.28;1.30;;;20.40;99.90;;;;;;5110312;28;20034;-54
2023/09/24 12:15:29;;;;;;;6.63;1.25;;;20.10;99.90;;;;;;5110877;28;20026;-54
2023/09/24 12:17:56;;;;;;;6.95;1.42;;;19.90;99.90;;;;;;5111508;28;20043;-53
2023/09/24 12:20:22;;;;;;;5.55;1.38;;;19.70;99.90;;;;;;5115386;27;20047;-43
2023/09/24 12:22:48;;;;;;;2.63;1.08;;;19.50;99.90;;;;;;5121060;27;20015;-47
2023/09/24 12:25:13;;;;;;;4.25;1.30;;;19.40;99.90;;;;;;5111130;28;20042;-51
2023/09/24 12:27:39;;;;;;;5.90;1.77;;;19.30;99.90;;;;;;5111393;28;20016;-46
2023/09/24 12:30:08;;;;;;;7.05;1.48;;;19.20;99.90;;;;;;5111314;28;20027;-44
2023/09/24 12:32:34;;;;;;;4.40;1.50;;;19.30;99.90;;;;;;5111103;28;20023;-44
2023/09/24 12:35:02;;;;;;;8.20;1.20;;;19.50;99.90;;;;;;5120188;27;20500;-47
2023/09/24 12:37:28;;;;;;;2.60;1.02;;;19.40;99.90;;;;;;5111801;27;20069;-51
2023/09/24 12:39:55;;;;;;;5.28;1.45;;;19.20;99.90;;;;;;5110933;27;20048;-49
2023/09/24 12:42:21;;;;;;;4.88;1.27;;;19.20;99.90;;;;;;5123032;27;20015;-51
2023/09/24 12:44:48;;;;;;;4.68;1.50;;;19.20;99.90;;;;;;5117467;27;20031;-54
2023/09/24 12:47:14;;;;;;;4.15;1.25;;;19.30;99.90;;;;;;5111778;27;20121;-49
2023/09/24 12:49:40;;;;;;;3.75;1.17;;;19.90;99.90;;;;;;5112456;27;20365;-44
2023/09/24 12:52:05;;;;;;;5.68;1.60;;;20.30;99.90;;;;;;5093329;28;20444;-47
2023/09/24 12:54:31;;;;;;;6.18;1.40;;;20.70;99.90;;;;;;5110880;28;20481;-52